sensor_id;sensor_type;location;lat;lon;timestamp;pressure;altitude;pressure_sealevel;temperature;humidity
35479;BME280;21594;49.794;18.652;2022-10-16T00:01:10;98340.00;;;14.78;100.00
35479;BME280;21594;49.794;18.652;2022-10-16T00:03:41;98340.13;;;14.76;100.00
35479;BME280;21594;49.794;18.652;2022-10-16T00:06:16;98338.39;;;14.71;100.00
35479;BME280;21594;49.794;18.652;2022-10-16T00:08:43;98346.47;;;14.64;100.00
35479;BME280;21594;49.794;18.652;2022-10-16T00:11:15;98355.49;;;14.61;100.00
35479;BME280;21594;49.794;18.652;2022-10-16T00:13:42;98348.91;;;14.61;100.00
35479;BME280;21594;49.794;18.652;2022-10-16T00:16:10;98356.66;;;14.63;100.00
35479;BME280;21594;49.794;18.652;2022-10-16T00:18:46;98356.30;;;14.62;100.00
35479;BME280;21594;49.794;18.652;2022-10-16T00:21:20;98358.50;;;14.57;100.00
35479;BME280;21594;49.794;18.652;2022-10-16T00:23:46;98358.18;;;14.56;100.00
35479;BME280;21594;49.794;18.652;2022-10-16T00:26:13;98359.62;;;14.54;100.00
35479;BME280;21594;49.794;18.652;2022-10-16T00:28:41;98358.66;;;14.55;100.00
35479;BME280;21594;49.794;18.652;2022-10-16T00:31:09;98363.45;;;14.56;100.00
35479;BME280;21594;49.794;18.652;2022-10-16T00:33:36;98360.30;;;14.56;100.00
35479;BME280;21594;49.794;18.652;2022-10-16T00:36:03;98359.22;;;14.59;100.00
35479;BME280;21594;49.794;18.652;2022-10-16T00:38:29;98355.14;;;14.60;100.00
35479;BME280;21594;49.794;18.652;2022-10-16T00:40:55;98359.77;;;14.62;100.00
35479;BME280;21594;49.794;18.652;2022-10-16T00:46:51;98367.42;;;14.65;100.00
35479;BME280;21594;49.794;18.652;2022-10-16T00:48:33;98367.90;;;14.65;100.00
35479;BME280;21594;49.794;18.652;2022-10-16T00:51:01;98366.10;;;14.65;100.00
35479;BME280;21594;49.794;18.652;2022-10-16T00:53:33;98361.03;;;14.68;100.00
35479;BME280;21594;49.794;18.652;2022-10-16T00:55:59;98367.02;;;14.70;100.00
35479;BME280;21594;49.794;18.652;2022-10-16T00:58:25;98360.20;;;14.68;100.00
35479;BME280;21594;49.794;18.652;2022-10-16T01:00:51;98363.19;;;14.69;100.00
35479;BME280;21594;49.794;18.652;2022-10-16T01:03:34;98365.14;;;14.67;100.00
35479;BME280;21594;49.794;18.652;2022-10-16T01:06:24;98363.83;;;14.67;100.00
35479;BME280;21594;49.794;18.652;2022-10-16T01:11:26;98364.78;;;14.65;100.00
35479;BME280;21594;49.794;18.652;2022-10-16T01:13:58;98363.95;;;14.65;100.00
35479;BME280;21594;49.794;18.652;2022-10-16T01:16:29;98364.78;;;14.65;100.00
35479;BME280;21594;49.794;18.652;2022-10-16T01:19:12;98358.94;;;14.62;100.00
35479;BME280;21594;49.794;18.652;2022-10-16T01:21:35;98355.49;;;14.61;100.00
35479;BME280;21594;49.794;18.652;2022-10-16T01:29:51;98354.37;;;14.64;100.00
35479;BME280;21594;49.794;18.652;2022-10-16T01:34:48;98349.59;;;14.63;100.00
35479;BME280;21594;49.794;18.652;2022-10-16T01:37:15;98349.03;;;14.60;100.00
35479;BME280;21594;49.794;18.652;2022-10-16T01:39:42;98342.70;;;14.57;100.00
35479;BME280;21594;49.794;18.652;2022-10-16T01:42:20;98360.22;;;14.52;100.00
35479;BME280;21594;49.794;18.652;2022-10-16T01:44:55;98363.22;;;14.53;100.00
35479;BME280;21594;49.794;18.652;2022-10-16T01:47:23;98359.27;;;14.53;100.00
35479;BME280;21594;49.794;18.652;2022-10-16T01:49:50;98363.09;;;14.55;100.00
35479;BME280;21594;49.794;18.652;2022-10-16T01:52:19;98356.50;;;14.55;100.00
35479;BME280;21594;49.794;18.652;2022-10-16T01:54:48;98361.62;;;14.56;100.00
35479;BME280;21594;49.794;18.652;2022-10-16T01:57:15;98357.19;;;14.57;100.00
35479;BME280;21594;49.794;18.652;2022-10-16T01:59:45;98366.20;;;14.54;100.00
35479;BME280;21594;49.794;18.652;2022-10-16T02:02:12;98365.84;;;14.53;100.00
35479;BME280;21594;49.794;18.652;2022-10-16T02:04:42;98362.73;;;14.54;100.00
35479;BME280;21594;49.794;18.652;2022-10-16T02:07:08;98372.23;;;14.51;100.00
35479;BME280;21594;49.794;18.652;2022-10-16T02:09:34;98373.31;;;14.48;100.00
35479;BME280;21594;49.794;18.652;2022-10-16T02:12:12;98376.78;;;14.49;100.00
35479;BME280;21594;49.794;18.652;2022-10-16T02:14:41;98377.67;;;14.44;100.00
35479;BME280;21594;49.794;18.652;2022-10-16T02:17:14;98382.58;;;14.43;100.00
35479;BME280;21594;49.794;18.652;2022-10-16T02:19:41;98394.30;;;14.44;100.00
35479;BME280;21594;49.794;18.652;2022-10-16T02:22:08;98394.30;;;14.44;100.00
35479;BME280;21594;49.794;18.652;2022-10-16T02:24:39;98392.83;;;14.46;100.00
35479;BME280;21594;49.794;18.652;2022-10-16T02:29:53;98395.70;;;14.48;100.00
35479;BME280;21594;49.794;18.652;2022-10-16T02:32:30;98407.83;;;14.45;100.00
35479;BME280;21594;49.794;18.652;2022-10-16T02:34:57;98408.31;;;14.45;100.00
35479;BME280;21594;49.794;18.652;2022-10-16T02:37:25;98409.14;;;14.45;100.00
35479;BME280;21594;49.794;18.652;2022-10-16T02:39:56;98413.42;;;14.46;100.00
35479;BME280;21594;49.794;18.652;2022-10-16T02:42:34;98398.45;;;14.47;100.00
35479;BME280;21594;49.794;18.652;2022-10-16T02:45:02;98406.59;;;14.49;100.00
35479;BME280;21594;49.794;18.652;2022-10-16T02:47:32;98413.05;;;14.51;100.00
35479;BME280;21594;49.794;18.652;2022-10-16T02:50:01;98405.88;;;14.47;100.00
35479;BME280;21594;49.794;18.652;2022-10-16T02:52:28;98406.63;;;14.44;100.00
35479;BME280;21594;49.794;18.652;2022-10-16T02:54:54;98403.08;;;14.39;100.00
35479;BME280;21594;49.794;18.652;2022-10-16T02:57:20;98408.47;;;14.38;100.00
35479;BME280;21594;49.794;18.652;2022-10-16T02:59:45;98411.31;;;14.35;100.00
35479;BME280;21594;49.794;18.652;2022-10-16T03:02:13;98403.58;;;14.33;100.00
35479;BME280;21594;49.794;18.652;2022-10-16T03:04:39;98396.28;;;14.31;100.00
35479;BME280;21594;49.794;18.652;2022-10-16T03:07:07;98404.53;;;14.32;100.00
35479;BME280;21594;49.794;18.652;2022-10-16T03:09:33;98400.58;;;14.32;100.00
35479;BME280;21594;49.794;18.652;2022-10-16T03:11:59;98406.69;;;14.33;100.00
35479;BME280;21594;49.794;18.652;2022-10-16T03:14:25;98405.25;;;14.34;100.00
35479;BME280;21594;49.794;18.652;2022-10-16T03:16:51;98404.73;;;14.35;100.00
35479;BME280;21594;49.794;18.652;2022-10-16T03:19:20;98403.93;;;14.34;100.00
35479;BME280;21594;49.794;18.652;2022-10-16T03:21:59;98411.47;;;14.33;100.00
35479;BME280;21594;49.794;18.652;2022-10-16T03:24:25;98403.70;;;14.32;100.00
35479;BME280;21594;49.794;18.652;2022-10-16T03:26:51;98411.83;;;14.34;100.00
35479;BME280;21594;49.794;18.652;2022-10-16T03:29:17;98403.09;;;14.34;100.00
35479;BME280;21594;49.794;18.652;2022-10-16T03:31:43;98400.46;;;14.34;100.00
35479;BME280;21594;49.794;18.652;2022-10-16T03:34:09;98406.33;;;14.32;100.00
35479;BME280;21594;49.794;18.652;2022-10-16T03:36:35;98406.20;;;14.33;100.00
35479;BME280;21594;49.794;18.652;2022-10-16T03:39:10;98409.67;;;14.34;100.00
35479;BME280;21594;49.794;18.652;2022-10-16T03:41:36;98411.59;;;14.32;100.00
35479;BME280;21594;49.794;18.652;2022-10-16T03:44:02;98419.02;;;14.32;100.00
35479;BME280;21594;49.794;18.652;2022-10-16T03:46:27;98410.99;;;14.34;100.00
35479;BME280;21594;49.794;18.652;2022-10-16T03:48:54;98420.20;;;14.34;100.00
35479;BME280;21594;49.794;18.652;2022-10-16T03:51:24;98424.99;;;14.34;100.00
35479;BME280;21594;49.794;18.652;2022-10-16T03:53:50;98419.09;;;14.36;100.00
35479;BME280;21594;49.794;18.652;2022-10-16T03:56:17;98420.89;;;14.36;100.00
35479;BME280;21594;49.794;18.652;2022-10-16T03:58:43;98419.73;;;14.34;100.00
35479;BME280;21594;49.794;18.652;2022-10-16T04:01:10;98431.06;;;14.35;100.00
35479;BME280;21594;49.794;18.652;2022-10-16T04:03:35;98424.00;;;14.35;100.00
35479;BME280;21594;49.794;18.652;2022-10-16T04:06:02;98427.27;;;14.33;100.00
35479;BME280;21594;49.794;18.652;2022-10-16T04:08:36;98436.25;;;14.31;100.00
35479;BME280;21594;49.794;18.652;2022-10-16T04:11:04;98428.83;;;14.30;100.00
35479;BME280;21594;49.794;18.652;2022-10-16T04:13:31;98425.03;;;14.29;100.00
35479;BME280;21594;49.794;18.652;2022-10-16T04:15:56;98420.97;;;14.24;100.00
35479;BME280;21594;49.794;18.652;2022-10-16T04:18:29;98428.18;;;14.22;100.00
35479;BME280;21594;49.794;18.652;2022-10-16T04:20:55;98424.83;;;14.20;100.00
35479;BME280;21594;49.794;18.652;2022-10-16T04:23:21;98429.62;;;14.21;100.00
35479;BME280;21594;49.794;18.652;2022-10-16T04:25:50;98431.89;;;14.20;100.00
35479;BME280;21594;49.794;18.652;2022-10-16T04:28:16;98424.23;;;14.22;100.00
35479;BME280;21594;49.794;18.652;2022-10-16T04:30:42;98425.39;;;14.24;100.00
35479;BME280;21594;49.794;18.652;2022-10-16T04:33:08;98427.22;;;14.23;100.00
35479;BME280;21594;49.794;18.652;2022-10-16T04:35:35;98426.51;;;14.21;100.00
35479;BME280;21594;49.794;18.652;2022-10-16T04:38:01;98429.14;;;14.21;100.00
35479;BME280;21594;49.794;18.652;2022-10-16T04:40:28;98431.66;;;14.23;100.00
35479;BME280;21594;49.794;18.652;2022-10-16T04:42:59;98429.70;;;14.25;100.00
35479;BME280;21594;49.794;18.652;2022-10-16T04:45:25;98435.69;;;14.27;100.00
35479;BME280;21594;49.794;18.652;2022-10-16T04:47:56;98433.05;;;14.27;100.00
35479;BME280;21594;49.794;18.652;2022-10-16T04:50:22;98427.78;;;14.27;100.00
35479;BME280;21594;49.794;18.652;2022-10-16T04:52:47;98431.37;;;14.26;100.00
35479;BME280;21594;49.794;18.652;2022-10-16T04:55:13;98436.64;;;14.26;100.00
35479;BME280;21594;49.794;18.652;2022-10-16T04:57:40;98436.28;;;14.25;100.00
35479;BME280;21594;49.794;18.652;2022-10-16T05:00:09;98439.75;;;14.25;100.00
35479;BME280;21594;49.794;18.652;2022-10-16T05:02:35;98455.30;;;14.29;100.00
35479;BME280;21594;49.794;18.652;2022-10-16T05:05:02;98440.08;;;14.32;100.00
35479;BME280;21594;49.794;18.652;2022-10-16T05:07:29;98444.50;;;14.37;100.00
35479;BME280;21594;49.794;18.652;2022-10-16T05:09:54;98440.78;;;14.40;100.00
35479;BME280;21594;49.794;18.652;2022-10-16T05:12:20;98443.27;;;14.41;100.00
35479;BME280;21594;49.794;18.652;2022-10-16T05:14:46;98445.42;;;14.36;100.00
35479;BME280;21594;49.794;18.652;2022-10-16T05:17:12;98444.11;;;14.36;100.00
35479;BME280;21594;49.794;18.652;2022-10-16T05:19:38;98447.01;;;14.39;100.00
35479;BME280;21594;49.794;18.652;2022-10-16T05:22:04;98452.39;;;14.37;100.00
35479;BME280;21594;49.794;18.652;2022-10-16T05:24:30;98452.13;;;14.40;100.00
35479;BME280;21594;49.794;18.652;2022-10-16T05:26:57;98457.34;;;14.46;100.00
35479;BME280;21594;49.794;18.652;2022-10-16T05:29:24;98452.08;;;14.46;100.00
35479;BME280;21594;49.794;18.652;2022-10-16T05:31:50;98454.52;;;14.43;100.00
35479;BME280;21594;49.794;18.652;2022-10-16T05:34:17;98453.55;;;14.44;100.00
35479;BME280;21594;49.794;18.652;2022-10-16T05:36:43;98453.03;;;14.50;100.00
35479;BME280;21594;49.794;18.652;2022-10-16T05:39:10;98452.04;;;14.51;100.00
35479;BME280;21594;49.794;18.652;2022-10-16T05:41:37;98465.32;;;14.55;100.00
35479;BME280;21594;49.794;18.652;2022-10-16T05:44:05;98466.76;;;14.54;100.00
35479;BME280;21594;49.794;18.652;2022-10-16T05:46:32;98459.94;;;14.51;100.00
35479;BME280;21594;49.794;18.652;2022-10-16T05:48:58;98466.08;;;14.46;100.00
35479;BME280;21594;49.794;18.652;2022-10-16T05:51:24;98471.59;;;14.49;100.00
35479;BME280;21594;49.794;18.652;2022-10-16T05:53:50;98474.58;;;14.50;100.00
35479;BME280;21594;49.794;18.652;2022-10-16T05:56:16;98479.69;;;14.51;100.00
35479;BME280;21594;49.794;18.652;2022-10-16T05:58:42;98483.52;;;14.53;100.00
35479;BME280;21594;49.794;18.652;2022-10-16T06:01:13;98478.13;;;14.54;100.00
35479;BME280;21594;49.794;18.652;2022-10-16T06:03:41;98486.72;;;14.56;100.00
35479;BME280;21594;49.794;18.652;2022-10-16T06:06:12;98490.78;;;14.60;100.00
35479;BME280;21594;49.794;18.652;2022-10-16T06:08:36;98485.59;;;14.64;100.00
35479;BME280;21594;49.794;18.652;2022-10-16T06:11:04;98487.62;;;14.67;100.00
35479;BME280;21594;49.794;18.652;2022-10-16T06:13:30;98504.23;;;14.73;100.00
35479;BME280;21594;49.794;18.652;2022-10-16T06:16:00;98499.16;;;14.75;100.00
35479;BME280;21594;49.794;18.652;2022-10-16T06:18:26;98499.59;;;14.80;100.00
35479;BME280;21594;49.794;18.652;2022-10-16T06:20:52;98505.94;;;14.83;100.00
35479;BME280;21594;49.794;18.652;2022-10-16T06:23:19;98505.54;;;14.88;100.00
35479;BME280;21594;49.794;18.652;2022-10-16T06:25:45;98516.11;;;14.97;100.00
35479;BME280;21594;49.794;18.652;2022-10-16T06:28:20;98522.13;;;15.09;100.00
35479;BME280;21594;49.794;18.652;2022-10-16T06:30:58;98521.44;;;15.17;100.00
35479;BME280;21594;49.794;18.652;2022-10-16T06:33:21;98525.02;;;15.21;100.00
35479;BME280;21594;49.794;18.652;2022-10-16T06:35:47;98524.69;;;15.30;100.00
35479;BME280;21594;49.794;18.652;2022-10-16T06:38:13;98526.51;;;15.39;100.00
35479;BME280;21594;49.794;18.652;2022-10-16T06:40:40;98540.70;;;15.47;100.00
35479;BME280;21594;49.794;18.652;2022-10-16T06:43:06;98540.06;;;15.49;100.00
35479;BME280;21594;49.794;18.652;2022-10-16T06:45:32;98546.64;;;15.55;100.00
35479;BME280;21594;49.794;18.652;2022-10-16T06:47:58;98546.58;;;15.61;100.00
35479;BME280;21594;49.794;18.652;2022-10-16T06:50:24;98545.01;;;15.64;100.00
35479;BME280;21594;49.794;18.652;2022-10-16T06:52:50;98551.25;;;15.63;100.00
35479;BME280;21594;49.794;18.652;2022-10-16T06:55:16;98557.23;;;15.65;100.00
35479;BME280;21594;49.794;18.652;2022-10-16T06:57:43;98555.98;;;15.69;100.00
35479;BME280;21594;49.794;18.652;2022-10-16T07:00:10;98561.62;;;15.70;100.00
35479;BME280;21594;49.794;18.652;2022-10-16T07:02:36;98559.40;;;15.75;100.00
35479;BME280;21594;49.794;18.652;2022-10-16T07:05:04;98565.36;;;15.77;100.00
35479;BME280;21594;49.794;18.652;2022-10-16T07:07:30;98562.53;;;15.84;100.00
35479;BME280;21594;49.794;18.652;2022-10-16T07:10:02;98558.99;;;15.89;100.00
35479;BME280;21594;49.794;18.652;2022-10-16T07:12:29;98559.34;;;15.90;100.00
35479;BME280;21594;49.794;18.652;2022-10-16T07:14:55;98563.17;;;15.92;100.00
35479;BME280;21594;49.794;18.652;2022-10-16T07:17:22;98559.16;;;15.97;100.00
35479;BME280;21594;49.794;18.652;2022-10-16T07:19:48;98564.69;;;15.94;100.00
35479;BME280;21594;49.794;18.652;2022-10-16T07:22:15;98570.61;;;15.92;100.00
35479;BME280;21594;49.794;18.652;2022-10-16T07:24:40;98571.29;;;15.94;100.00
35479;BME280;21594;49.794;18.652;2022-10-16T07:27:06;98579.72;;;16.03;100.00
35479;BME280;21594;49.794;18.652;2022-10-16T07:29:32;98583.27;;;16.08;100.00
35479;BME280;21594;49.794;18.652;2022-10-16T07:32:01;98579.23;;;16.13;100.00
35479;BME280;21594;49.794;18.652;2022-10-16T07:34:29;98580.63;;;16.17;100.00
35479;BME280;21594;49.794;18.652;2022-10-16T07:36:55;98583.48;;;16.20;100.00
35479;BME280;21594;49.794;18.652;2022-10-16T07:39:21;98578.81;;;16.27;100.00
35479;BME280;21594;49.794;18.652;2022-10-16T07:41:47;98583.60;;;16.38;100.00
35479;BME280;21594;49.794;18.652;2022-10-16T07:44:13;98590.30;;;16.42;100.00
35479;BME280;21594;49.794;18.652;2022-10-16T07:46:41;98593.35;;;16.47;100.00
35479;BME280;21594;49.794;18.652;2022-10-16T07:49:07;98590.06;;;16.49;100.00
35479;BME280;21594;49.794;18.652;2022-10-16T07:51:34;98588.61;;;16.50;100.00
35479;BME280;21594;49.794;18.652;2022-10-16T07:54:00;98598.88;;;16.53;100.00
35479;BME280;21594;49.794;18.652;2022-10-16T07:56:26;98603.42;;;16.57;100.00
35479;BME280;21594;49.794;18.652;2022-10-16T07:58:51;98600.61;;;16.58;100.00
35479;BME280;21594;49.794;18.652;2022-10-16T08:01:17;98606.69;;;16.64;100.00
35479;BME280;21594;49.794;18.652;2022-10-16T08:03:44;98601.14;;;16.67;100.00
35479;BME280;21594;49.794;18.652;2022-10-16T08:06:12;98606.20;;;16.65;100.00
35479;BME280;21594;49.794;18.652;2022-10-16T08:08:38;98601.35;;;16.60;100.00
35479;BME280;21594;49.794;18.652;2022-10-16T08:11:04;98604.34;;;16.61;100.00
35479;BME280;21594;49.794;18.652;2022-10-16T08:13:31;98605.53;;;16.63;100.00
35479;BME280;21594;49.794;18.652;2022-10-16T08:15:57;98604.97;;;16.69;100.00
35479;BME280;21594;49.794;18.652;2022-10-16T08:18:23;98605.70;;;16.75;100.00
35479;BME280;21594;49.794;18.652;2022-10-16T08:20:54;98606.11;;;16.80;100.00
35479;BME280;21594;49.794;18.652;2022-10-16T08:23:17;98612.86;;;16.88;100.00
35479;BME280;21594;49.794;18.652;2022-10-16T08:25:43;98611.94;;;16.93;100.00
35479;BME280;21594;49.794;18.652;2022-10-16T08:28:10;98604.77;;;16.99;100.00
35479;BME280;21594;49.794;18.652;2022-10-16T08:30:36;98606.48;;;17.04;100.00
35479;BME280;21594;49.794;18.652;2022-10-16T08:33:04;98602.44;;;17.10;100.00
35479;BME280;21594;49.794;18.652;2022-10-16T08:35:31;98607.34;;;17.19;100.00
35479;BME280;21594;49.794;18.652;2022-10-16T08:37:57;98608.39;;;17.22;100.00
35479;BME280;21594;49.794;18.652;2022-10-16T08:40:30;98605.92;;;17.24;100.00
35479;BME280;21594;49.794;18.652;2022-10-16T08:50:38;98609.09;;;17.24;100.00
35479;BME280;21594;49.794;18.652;2022-10-16T08:53:05;98602.47;;;17.24;100.00
35479;BME280;21594;49.794;18.652;2022-10-16T08:55:34;98600.84;;;17.27;100.00
35479;BME280;21594;49.794;18.652;2022-10-16T08:58:00;98610.02;;;17.32;100.00
35479;BME280;21594;49.794;18.652;2022-10-16T09:00:26;98610.90;;;17.37;100.00
35479;BME280;21594;49.794;18.652;2022-10-16T09:02:59;98609.79;;;17.39;100.00
35479;BME280;21594;49.794;18.652;2022-10-16T09:13:35;98620.73;;;17.68;100.00
35479;BME280;21594;49.794;18.652;2022-10-16T09:16:01;98623.19;;;17.79;100.00
35479;BME280;21594;49.794;18.652;2022-10-16T09:18:33;98618.28;;;17.84;100.00
35479;BME280;21594;49.794;18.652;2022-10-16T09:20:59;98622.50;;;17.90;100.00
35479;BME280;21594;49.794;18.652;2022-10-16T09:23:26;98620.09;;;17.97;100.00
35479;BME280;21594;49.794;18.652;2022-10-16T09:25:52;98625.64;;;18.04;100.00
35479;BME280;21594;49.794;18.652;2022-10-16T09:28:19;98630.34;;;18.10;100.00
35479;BME280;21594;49.794;18.652;2022-10-16T09:30:46;98632.88;;;18.15;100.00
35479;BME280;21594;49.794;18.652;2022-10-16T09:33:14;98630.13;;;18.21;100.00
35479;BME280;21594;49.794;18.652;2022-10-16T09:35:45;98635.45;;;18.25;100.00
35479;BME280;21594;49.794;18.652;2022-10-16T09:38:20;98631.38;;;18.30;100.00
35479;BME280;21594;49.794;18.652;2022-10-16T09:40:38;98634.61;;;18.38;100.00
35479;BME280;21594;49.794;18.652;2022-10-16T09:43:13;98636.80;;;18.43;100.00
35479;BME280;21594;49.794;18.652;2022-10-16T09:45:35;98642.27;;;18.45;100.00
35479;BME280;21594;49.794;18.652;2022-10-16T09:48:01;98643.30;;;18.48;100.00
35479;BME280;21594;49.794;18.652;2022-10-16T09:53:04;98650.02;;;18.56;100.00
35479;BME280;21594;49.794;18.652;2022-10-16T09:55:31;98645.56;;;18.57;100.00
35479;BME280;21594;49.794;18.652;2022-10-16T09:57:57;98647.40;;;18.60;100.00
35479;BME280;21594;49.794;18.652;2022-10-16T10:00:25;98653.05;;;18.61;100.00
35479;BME280;21594;49.794;18.652;2022-10-16T10:02:51;98641.81;;;18.63;100.00
35479;BME280;21594;49.794;18.652;2022-10-16T10:05:19;98655.21;;;18.62;100.00
35479;BME280;21594;49.794;18.652;2022-10-16T10:07:57;98654.72;;;18.62;100.00
35479;BME280;21594;49.794;18.652;2022-10-16T10:10:30;98655.91;;;18.64;100.00
35479;BME280;21594;49.794;18.652;2022-10-16T10:12:52;98655.76;;;18.65;100.00
35479;BME280;21594;49.794;18.652;2022-10-16T10:15:18;98656.56;;;18.66;100.00
35479;BME280;21594;49.794;18.652;2022-10-16T10:17:51;98653.91;;;18.66;100.00
35479;BME280;21594;49.794;18.652;2022-10-16T10:20:21;98660.77;;;18.72;100.00
35479;BME280;21594;49.794;18.652;2022-10-16T10:22:43;98660.30;;;18.77;100.00
35479;BME280;21594;49.794;18.652;2022-10-16T10:30:27;98660.13;;;18.92;100.00
35479;BME280;21594;49.794;18.652;2022-10-16T10:35:52;98657.39;;;19.06;100.00
35479;BME280;21594;49.794;18.652;2022-10-16T10:38:23;98662.27;;;19.14;100.00
35479;BME280;21594;49.794;18.652;2022-10-16T10:46:00;98667.69;;;19.31;100.00
35479;BME280;21594;49.794;18.652;2022-10-16T11:07:05;98658.41;;;19.60;100.00
35479;BME280;21594;49.794;18.652;2022-10-16T11:09:43;98659.61;;;19.66;100.00
35479;BME280;21594;49.794;18.652;2022-10-16T11:12:13;98660.11;;;19.70;100.00
35479;BME280;21594;49.794;18.652;2022-10-16T11:17:26;98667.77;;;19.73;100.00
35479;BME280;21594;49.794;18.652;2022-10-16T11:20:02;98674.13;;;19.80;100.00
35479;BME280;21594;49.794;18.652;2022-10-16T11:22:41;98677.44;;;19.86;100.00
35479;BME280;21594;49.794;18.652;2022-10-16T11:25:23;98682.31;;;19.94;100.00
35479;BME280;21594;49.794;18.652;2022-10-16T11:27:51;98681.98;;;19.97;100.00
35479;BME280;21594;49.794;18.652;2022-10-16T11:33:21;98677.20;;;20.01;100.00
35479;BME280;21594;49.794;18.652;2022-10-16T11:38:26;98673.22;;;20.05;100.00
35479;BME280;21594;49.794;18.652;2022-10-16T11:40:50;98673.55;;;20.06;100.00
35479;BME280;21594;49.794;18.652;2022-10-16T11:43:21;98672.88;;;20.08;100.00
35479;BME280;21594;49.794;18.652;2022-10-16T11:45:46;98668.89;;;20.08;100.00
35479;BME280;21594;49.794;18.652;2022-10-16T11:48:16;98668.73;;;20.05;100.00
35479;BME280;21594;49.794;18.652;2022-10-16T11:50:43;98658.76;;;20.08;100.00
35479;BME280;21594;49.794;18.652;2022-10-16T11:53:21;98656.94;;;20.08;100.00
35479;BME280;21594;49.794;18.652;2022-10-16T11:55:46;98658.60;;;20.05;100.00
35479;BME280;21594;49.794;18.652;2022-10-16T12:00:41;98663.72;;;19.98;100.00
35479;BME280;21594;49.794;18.652;2022-10-16T12:03:14;98663.03;;;19.92;100.00
35479;BME280;21594;49.794;18.652;2022-10-16T12:08:10;98665.34;;;19.91;100.00
35479;BME280;21594;49.794;18.652;2022-10-16T12:10:37;98676.98;;;19.90;100.00
35479;BME280;21594;49.794;18.652;2022-10-16T12:15:50;98670.63;;;19.79;100.00
35479;BME280;21594;49.794;18.652;2022-10-16T12:18:24;98669.27;;;19.75;100.00
35479;BME280;21594;49.794;18.652;2022-10-16T12:20:54;98679.38;;;19.72;100.00
35479;BME280;21594;49.794;18.652;2022-10-16T12:23:19;98675.19;;;19.65;100.00
35479;BME280;21594;49.794;18.652;2022-10-16T12:25:53;98670.06;;;19.63;100.00
35479;BME280;21594;49.794;18.652;2022-10-16T12:30:53;98672.40;;;19.71;100.00
35479;BME280;21594;49.794;18.652;2022-10-16T12:35:48;98684.41;;;19.79;100.00
35479;BME280;21594;49.794;18.652;2022-10-16T12:38:21;98682.73;;;19.78;100.00
35479;BME280;21594;49.794;18.652;2022-10-16T12:41:08;98682.04;;;19.72;100.00
35479;BME280;21594;49.794;18.652;2022-10-16T12:45:58;98692.30;;;19.67;100.00
35479;BME280;21594;49.794;18.652;2022-10-16T12:48:21;98686.48;;;19.63;100.00
35479;BME280;21594;49.794;18.652;2022-10-16T12:50:47;98692.42;;;19.57;100.00
35479;BME280;21594;49.794;18.652;2022-10-16T12:53:18;98693.75;;;19.57;100.00
35479;BME280;21594;49.794;18.652;2022-10-16T13:00:57;98689.30;;;19.66;100.00
35479;BME280;21594;49.794;18.652;2022-10-16T13:03:27;98691.34;;;19.76;100.00
35479;BME280;21594;49.794;18.652;2022-10-16T13:08:46;98695.26;;;19.97;100.00
35479;BME280;21594;49.794;18.652;2022-10-16T13:27:50;98698.61;;;20.08;100.00
35479;BME280;21594;49.794;18.652;2022-10-16T13:29:32;98705.09;;;20.05;100.00
35479;BME280;21594;49.794;18.652;2022-10-16T13:31:58;98705.25;;;20.03;100.00
35479;BME280;21594;49.794;18.652;2022-10-16T13:34:26;98710.72;;;20.02;100.00
35479;BME280;21594;49.794;18.652;2022-10-16T13:36:52;98709.38;;;19.98;100.00
35479;BME280;21594;49.794;18.652;2022-10-16T13:39:23;98708.05;;;19.98;100.00
35479;BME280;21594;49.794;18.652;2022-10-16T13:44:30;98702.38;;;19.93;100.00
35479;BME280;21594;49.794;18.652;2022-10-16T13:47:00;98695.09;;;19.91;100.00
35479;BME280;21594;49.794;18.652;2022-10-16T13:49:27;98700.06;;;19.90;100.00
35479;BME280;21594;49.794;18.652;2022-10-16T13:51:54;98694.06;;;19.88;100.00
35479;BME280;21594;49.794;18.652;2022-10-16T13:54:21;98697.41;;;19.90;100.00
35479;BME280;21594;49.794;18.652;2022-10-16T13:56:48;98701.73;;;19.91;100.00
35479;BME280;21594;49.794;18.652;2022-10-16T14:01:51;98705.32;;;19.82;100.00
35479;BME280;21594;49.794;18.652;2022-10-16T14:04:19;98704.63;;;19.76;100.00
35479;BME280;21594;49.794;18.652;2022-10-16T14:06:46;98697.82;;;19.73;100.00
35479;BME280;21594;49.794;18.652;2022-10-16T14:09:33;98705.25;;;19.70;100.00
35479;BME280;21594;49.794;18.652;2022-10-16T14:11:46;98703.20;;;19.59;100.00
35479;BME280;21594;49.794;18.652;2022-10-16T14:14:13;98707.17;;;19.55;100.00
35479;BME280;21594;49.794;18.652;2022-10-16T14:16:41;98705.81;;;19.47;100.00
35479;BME280;21594;49.794;18.652;2022-10-16T14:21:43;98720.33;;;19.43;100.00
35479;BME280;21594;49.794;18.652;2022-10-16T14:24:12;98721.89;;;19.46;100.00
35479;BME280;21594;49.794;18.652;2022-10-16T14:26:44;98728.97;;;19.41;100.00
35479;BME280;21594;49.794;18.652;2022-10-16T14:29:12;98722.90;;;19.31;100.00
35479;BME280;21594;49.794;18.652;2022-10-16T14:31:38;98727.55;;;19.29;100.00
35479;BME280;21594;49.794;18.652;2022-10-16T14:36:56;98735.87;;;19.34;100.00
35479;BME280;21594;49.794;18.652;2022-10-16T14:39:24;98739.26;;;19.44;100.00
35479;BME280;21594;49.794;18.652;2022-10-16T14:41:52;98742.39;;;19.40;100.00
35479;BME280;21594;49.794;18.652;2022-10-16T14:44:20;98747.67;;;19.36;100.00
35479;BME280;21594;49.794;18.652;2022-10-16T14:46:48;98751.78;;;19.30;100.00
35479;BME280;21594;49.794;18.652;2022-10-16T14:49:15;98744.08;;;19.23;100.00